Navarino, Wisconsin
Current Conditions -  °F | °C
As of 1:35 PM on Thursday 18 Dec 2014 (Local Time) from KEZS Reporting Station
Clear Clear  
Wind Chill: 32°   Ceiling: Unl
Heat Index: 32°   Visibility: 10mi
Dew Point: 20°   Wind: 0mph
Humidity: 59%   Direction: NA
Pressure: 30.24"   Gusts: NA
Location:  44.7353°N, 88.4379°W
Report Text: KEZS 181935Z AUTO 00000KT 10SM CLR 00/M07 A3024 RMK AO2 T00021069
Loading
Personal Weather Stations






























Interactive Weather Map New forecast layout! Learn more

10-Day Weather Forecast

Advertisements
Track Severe Weather on mobile